Flight Track Log - Related Links

Times and Time Zones

All times are in EST time to prevent confusion due to time zone crossing. See the AFL150 flight status page for this flight to view local times or setup timezone preferences in your user account.

Time Position Orientation Groundspeed Altitude Reporting Facility
EST Latitude Longitude Course Direction KTS MPH feet Rate Location/Type
Tue 04:33:00 AM 56.2401 37.0472 319° Northwest  Level FlightAware Approximate
Tue 04:34:00 AM 56.3327 36.8989 318° Northwest  Level FlightAware Approximate
Tue 04:35:00 AM 56.4251 36.7500 318° Northwest  Level FlightAware Approximate
Tue 04:36:00 AM 56.5174 36.6002 318° Northwest  Level FlightAware Approximate
Tue 04:37:00 AM 56.6095 36.4498 318° Northwest  Level FlightAware Approximate
Tue 04:38:00 AM 56.7014 36.2986 318° Northwest  Level FlightAware Approximate
Tue 04:39:00 AM 56.7931 36.1466 318° Northwest  Level FlightAware Approximate
Tue 04:40:00 AM 56.8846 35.9940 318° Northwest  Level FlightAware Approximate
Tue 04:41:00 AM 56.9759 35.8405 318° Northwest  Level FlightAware Approximate
Tue 04:42:00 AM 57.0671 35.6864 317° Northwest  Level FlightAware Approximate
Tue 04:43:00 AM 57.1581 35.5314 317° Northwest  Level FlightAware Approximate
Tue 04:44:00 AM 57.2488 35.3757 317° Northwest  Level FlightAware Approximate
Tue 04:45:00 AM 57.3394 35.2193 317° Northwest  Level FlightAware Approximate
Tue 04:46:00 AM 57.4298 35.0620 317° Northwest  Level FlightAware Approximate
Tue 04:47:00 AM 57.5200 34.9040 317° Northwest  Level FlightAware Approximate
Tue 04:48:00 AM 57.6100 34.7452 317° Northwest  Level FlightAware Approximate
Tue 04:49:00 AM 57.6460 34.6783 315° West  Level FlightAware Approximate
Tue 04:50:00 AM 57.7334 34.5139 315° West  Level FlightAware Approximate
Tue 04:51:00 AM 57.8206 34.3488 315° West  Level FlightAware Approximate
Tue 04:52:00 AM 57.9075 34.1828 315° West  Level FlightAware Approximate
Tue 04:53:00 AM 57.9942 34.0160 314° West  Level FlightAware Approximate
Tue 04:54:00 AM 58.0807 33.8484 314° West  Level FlightAware Approximate
Tue 04:55:00 AM 58.1670 33.6800 314° West  Level FlightAware Approximate
Tue 04:56:00 AM 58.2530 33.5108 314° West  Level FlightAware Approximate
Tue 04:57:00 AM 58.3389 33.3408 314° West  Level FlightAware Approximate
Tue 04:58:00 AM 58.4245 33.1699 314° West  Level FlightAware Approximate
Tue 04:59:00 AM 58.5098 32.9982 314° West  Level FlightAware Approximate
Tue 05:00:00 AM 58.5950 32.8257 313° West  Level FlightAware Approximate
Tue 05:01:00 AM 58.6799 32.6523 313° West  Level FlightAware Approximate
Tue 05:01:14 AM 56.3520 33.4426 280° West 459 528 32,000  Level FlightAware ADS-B
Tue 05:02:18 AM 56.3520 33.4426 278° West 472 543 32,000 102 Level FlightAware ADS-B
Tue 05:09:06 AM 56.9187 30.1786 304° West 465 535 32,800 159 Climbing FlightAware ADS-B
Tue 05:09:51 AM 56.9636 30.0557 304° West 463 533 33,200 545 Climbing FlightAware ADS-B
Tue 05:10:23 AM 57.0038 29.9452 304° West 463 533 33,500 474 Climbing FlightAware ADS-B
Tue 05:11:07 AM 57.0580 29.7955 304° West 461 531 33,800 288 Climbing FlightAware ADS-B
Tue 05:12:07 AM 57.1306 29.5935 303° West 462 532 34,000 97 Climbing FlightAware ADS-B
Tue 05:13:11 AM 57.2046 29.3859 303° West 462 532 34,000  Level FlightAware ADS-B
Tue 05:14:23 AM 57.2893 29.1459 303° West 460 529 34,000  Level FlightAware ADS-B
Tue 05:15:23 AM 57.3572 28.9517 303° West 458 527 34,000  Level FlightAware ADS-B
Tue 05:16:23 AM 57.4250 28.7565 303° West 458 527 34,000  Level FlightAware ADS-B
Tue 05:17:23 AM 57.4955 28.5520 303° West 459 528 34,000  Level FlightAware ADS-B
Tue 05:18:27 AM 57.5686 28.3378 302° West 459 528 34,000  Level FlightAware ADS-B
Tue 05:19:42 AM 57.6516 28.0927 302° West 459 528 34,000  Level FlightAware ADS-B
Tue 05:20:41 AM 57.7200 27.8887 302° West 460 529 34,000  Level FlightAware ADS-B
Tue 05:21:41 AM 57.7868 27.6877 302° West 459 528 34,000  Level FlightAware ADS-B
Tue 05:22:42 AM 57.8458 27.4901 290° West 457 526 34,000  Level FlightAware ADS-B
Tue 05:23:41 AM 57.8909 27.2635 291° West 456 525 34,000  Level FlightAware ADS-B
Tue 05:24:53 AM 57.9448 26.9948 291° West 457 526 34,000  Level FlightAware ADS-B
Tue 05:25:53 AM 57.9894 26.7702 291° West 458 527 34,000  Level FlightAware ADS-B
Tue 05:26:54 AM 58.0331 26.5478 290° West 456 525 34,000  Level FlightAware ADS-B
Tue 05:27:54 AM 58.0774 26.3197 290° West 457 526 34,000  Level FlightAware ADS-B
Tue 05:28:54 AM 58.1205 26.0957 290° West 456 525 34,000  Level FlightAware ADS-B
Tue 05:29:54 AM 58.1604 25.8863 290° West 457 526 34,000  Level FlightAware ADS-B
Tue 05:30:54 AM 58.2051 25.6481 289° West 457 526 34,000  Level FlightAware ADS-B
Tue 05:31:54 AM 58.2465 25.4244 289° West 457 526 34,000  Level FlightAware ADS-B
Tue 05:32:55 AM 58.2824 25.2286 289° West 457 526 34,000  Level FlightAware ADS-B
Tue 05:33:51 AM 58.3287 24.9734 289° West 454 522 34,000  Level FlightAware ADS-B
Tue 05:34:59 AM 58.3287 24.9734 289° West 452 520 34,000  Level FlightAware ADS-B
Tue 05:46:47 AM 58.6221 23.0870 284° West 457 526 34,000  Level FlightAware ADS-B
Tue 05:50:49 AM 58.8937 21.0346 284° West 458 527 34,000  Level FlightAware ADS-B
Tue 05:51:35 AM 58.9216 20.8609 288° West 458 527 34,000  Level FlightAware ADS-B
Tue 05:52:14 AM 58.9446 20.7240 288° West 459 528 34,000  Level FlightAware ADS-B
Tue 05:52:54 AM 58.9738 20.5469 288° West 459 528 34,000  Level FlightAware ADS-B
Tue 05:53:34 AM 58.9994 20.3900 288° West 459 528 34,000  Level FlightAware ADS-B
Tue 05:54:15 AM 59.0246 20.2336 287° West 460 529 34,000  Level FlightAware ADS-B
Tue 05:54:55 AM 59.0475 20.0912 287° West 460 529 34,000  Level FlightAware ADS-B
Tue 05:55:34 AM 59.0744 19.9212 287° West 458 527 34,000  Level FlightAware ADS-B
Tue 05:56:14 AM 59.0990 19.7651 287° West 456 525 34,000  Level FlightAware ADS-B
Tue 05:56:54 AM 59.1231 19.6106 287° West 453 521 34,000  Level FlightAware ADS-B
Tue 05:57:37 AM 59.1493 19.4411 287° West 454 522 34,000  Level FlightAware ADS-B
Tue 05:58:16 AM 59.1714 19.2961 287° West 455 524 34,000  Level FlightAware ADS-B
Tue 05:58:56 AM 59.1963 19.1323 286° West 454 522 34,000  Level FlightAware ADS-B
Tue 05:59:38 AM 59.2210 18.9676 286° West 453 521 34,000  Level FlightAware ADS-B
Tue 06:00:18 AM 59.2435 18.8168 286° West 451 519 34,000  Level FlightAware ADS-B
Tue 06:00:58 AM 59.2666 18.6593 286° West 448 516 34,000  Level FlightAware ADS-B
Tue 06:01:39 AM 59.2900 18.4986 286° West 447 514 34,000  Level FlightAware ADS-B
Tue 06:02:18 AM 59.3116 18.3490 286° West 447 514 34,000  Level FlightAware ADS-B
Tue 06:02:58 AM 59.3346 18.1884 286° West 446 513 34,000  Level FlightAware ADS-B
Tue 06:03:39 AM 59.3561 18.0373 285° West 445 512 34,000  Level FlightAware ADS-B
Tue 06:04:17 AM 59.3777 17.8835 285° West 445 512 34,000  Level FlightAware ADS-B
Tue 06:04:58 AM 59.3981 17.7371 285° West 445 512 34,000  Level FlightAware ADS-B
Tue 06:05:35 AM 59.4194 17.5829 285° West 445 512 34,000  Level FlightAware ADS-B
Tue 06:06:16 AM 59.4404 17.4278 285° West 445 512 34,000  Level FlightAware ADS-B
Tue 06:07:03 AM 59.4650 17.2450 285° West 444 511 34,000  Level FlightAware ADS-B
Tue 06:07:41 AM 59.4794 17.1367 285° West 446 513 34,000  Level FlightAware ADS-B
Tue 06:08:20 AM 59.5052 16.9430 285° West 446 513 34,000  Level FlightAware ADS-B
Tue 06:09:02 AM 59.5273 16.7745 284° West 447 514 34,000  Level FlightAware ADS-B
Tue 06:09:43 AM 59.5480 16.6139 284° West 448 516 34,000  Level FlightAware ADS-B
Tue 06:09:56 AM 59.5560 16.5516 283° West 447 514 34,000  Level FlightAware ADS-B
Tue 06:10:18 AM 59.5672 16.4640 283° West 447 514 34,000  Level FlightAware ADS-B
Tue 06:10:48 AM 59.5823 16.3448 283° West 447 514 34,000  Level FlightAware ADS-B
Tue 06:11:06 AM 59.5898 16.2849 284° West 448 516 34,000  Level FlightAware ADS-B
Tue 06:11:50 AM 59.6135 16.0956 283° West 447 514 34,000  Level FlightAware ADS-B
Tue 06:12:21 AM 59.6270 15.9870 284° West 450 518 34,000  Level FlightAware ADS-B
Tue 06:12:51 AM 59.6434 15.8533 283° West 450 518 34,000  Level FlightAware ADS-B
Tue 06:13:38 AM 59.6522 15.7808 284° West 454 522 34,000  Level FlightAware ADS-B
Tue 06:14:10 AM 59.6806 15.5447 282° West 452 520 34,000  Level FlightAware ADS-B
Tue 06:14:40 AM 59.6961 15.4139 282° West 454 522 34,000  Level FlightAware ADS-B
Tue 06:15:12 AM 59.7111 15.2874 282° West 454 522 34,000  Level FlightAware ADS-B
Tue 06:15:45 AM 59.7263 15.1572 283° West 456 525 34,000  Level FlightAware ADS-B
Tue 06:16:17 AM 59.7420 15.0211 283° West 456 525 34,000  Level FlightAware ADS-B
Tue 06:16:48 AM 59.7565 14.8941 283° West 455 524 34,000  Level FlightAware ADS-B
Tue 06:17:19 AM 59.7711 14.7666 283° West 455 524 34,000  Level FlightAware ADS-B
Tue 06:17:51 AM 59.7854 14.6391 283° West 456 525 34,000  Level FlightAware ADS-B
Tue 06:18:21 AM 59.7988 14.5192 282° West 457 526 34,000  Level FlightAware ADS-B
Tue 06:19:06 AM 59.8191 14.3350 282° West 455 524 34,000  Level FlightAware ADS-B
Tue 06:19:37 AM 59.8330 14.2064 282° West 455 524 34,000  Level FlightAware ADS-B
Tue 06:20:07 AM 59.8464 14.0836 282° West 456 525 34,000  Level FlightAware ADS-B
Tue 06:20:39 AM 59.8600 13.9555 281° West 455 524 34,000  Level FlightAware ADS-B
Tue 06:21:25 AM 59.8800 13.7656 281° West 456 525 34,000  Level FlightAware ADS-B
Tue 06:21:56 AM 59.8933 13.6374 281° West 457 526 34,000  Level FlightAware ADS-B
Tue 06:22:26 AM 59.9058 13.5159 281° West 458 527 34,000  Level FlightAware ADS-B
Tue 06:22:58 AM 59.9196 13.3811 280° West 459 528 34,000  Level FlightAware ADS-B
Tue 06:23:31 AM 59.9335 13.2431 280° West 459 528 34,000  Level FlightAware ADS-B
Tue 06:24:03 AM 59.9464 13.1137 280° West 460 529 34,000  Level FlightAware ADS-B
Tue 06:24:33 AM 59.9604 12.9878 285° West 463 533 34,000  Level FlightAware ADS-B
Tue 06:25:07 AM 59.9817 12.8490 286° West 463 533 34,000  Level FlightAware ADS-B
Tue 06:25:41 AM 60.0024 12.7092 286° West 464 534 34,000  Level FlightAware ADS-B
Tue 06:26:11 AM 60.0203 12.5870 287° West 464 534 34,000  Level FlightAware ADS-B
Tue 06:26:42 AM 60.0395 12.4587 286° West 463 533 34,000  Level FlightAware ADS-B
Tue 06:27:15 AM 60.0591 12.3242 286° West 463 533 34,000  Level FlightAware ADS-B
Tue 06:27:46 AM 60.0774 12.1973 286° West 464 534 34,000  Level FlightAware ADS-B
Tue 06:28:16 AM 60.0951 12.0733 286° West 465 535 34,000  Level FlightAware ADS-B
Tue 06:28:46 AM 60.1126 11.9499 286° West 466 536 34,000  Level FlightAware ADS-B
Tue 06:29:18 AM 60.1305 11.8229 285° West 463 533 34,000  Level FlightAware ADS-B
Tue 06:31:03 AM 60.1911 11.3851 285° West 463 533 34,000  Level FlightAware ADS-B
Tue 06:31:37 AM 60.2108 11.2400 284° West 465 535 34,000 Level FlightAware ADS-B
Tue 06:34:00 AM 60.2857 10.6643 285° West  Level Estimated
Tue 06:35:00 AM 60.3163 10.4220 284° West  Level Estimated
Tue 06:36:00 AM 60.3465 10.1792 284° West  Level Estimated
Tue 06:37:00 AM 60.3763 9.9360 284° West  Level Estimated
Tue 06:38:00 AM 60.4056 9.6923 284° West  Level Estimated
Tue 06:39:00 AM 60.4345 9.4482 284° West  Level Estimated
Tue 06:40:00 AM 60.4629 9.2037 283° West  Level Estimated
Tue 06:41:00 AM 60.4909 8.9588 283° West  Level Estimated
Tue 06:42:00 AM 60.5184 8.7134 283° West  Level Estimated
Tue 06:43:00 AM 60.5455 8.4676 283° West  Level Estimated
Tue 06:44:00 AM 60.5721 8.2214 283° West  Level Estimated
Tue 06:45:00 AM 60.5983 7.9749 282° West  Level Estimated
Tue 06:46:00 AM 60.6240 7.7279 282° West  Level Estimated
Tue 06:47:00 AM 60.6492 7.4805 282° West  Level Estimated
Tue 06:48:00 AM 60.6740 7.2327 282° West  Level Estimated
Tue 06:49:00 AM 60.6984 6.9846 281° West  Level Estimated
Tue 06:50:00 AM 60.7223 6.7361 281° West  Level Estimated
Tue 06:51:00 AM 60.7457 6.4872 281° West  Level Estimated
Tue 06:52:00 AM 60.7686 6.2379 281° West  Level Estimated
Tue 06:53:00 AM 60.7911 5.9884 281° West  Level Estimated
Tue 06:54:00 AM 60.8132 5.7384 280° West  Level Estimated
Tue 06:55:00 AM 60.8348 5.4881 280° West  Level Estimated
Tue 06:56:00 AM 60.8559 5.2375 280° West  Level Estimated
Tue 06:57:00 AM 60.8765 4.9866 280° West  Level Estimated
Tue 06:58:00 AM 60.8967 4.7353 279° West  Level Estimated
Tue 06:59:00 AM 60.9164 4.4837 279° West  Level Estimated
Tue 07:00:00 AM 60.9356 4.2319 279° West  Level Estimated
Tue 07:01:00 AM 60.9544 3.9797 279° West  Level Estimated
Tue 07:02:00 AM 60.9726 3.7272 279° West  Level Estimated
Tue 07:03:00 AM 60.9905 3.4744 278° West  Level Estimated
Tue 07:04:00 AM 61.0078 3.2214 278° West  Level Estimated
Tue 07:05:00 AM 61.0247 2.9680 278° West  Level Estimated
Tue 07:06:00 AM 61.0411 2.7144 278° West  Level Estimated
Tue 07:07:00 AM 61.0570 2.4606 277° West  Level Estimated
Tue 07:08:00 AM 61.0724 2.2065 277° West  Level Estimated
Tue 07:09:00 AM 61.0874 1.9522 277° West  Level Estimated
Tue 07:10:00 AM 61.1019 1.6976 277° West  Level Estimated
Tue 07:11:00 AM 61.1159 1.4428 277° West  Level Estimated
Tue 07:12:00 AM 61.1294 1.1878 276° West  Level Estimated
Tue 07:13:00 AM 61.1424 0.9325 276° West  Level Estimated
Tue 07:14:00 AM 61.1550 0.6771 276° West  Level Estimated
Tue 07:15:00 AM 61.1671 0.4214 276° West  Level Estimated
Tue 07:16:00 AM 61.1787 0.1656 275° West  Level Estimated
Tue 07:17:00 AM 61.1898 -0.0904 275° West  Level Estimated
Tue 07:18:00 AM 61.2005 -0.3467 275° West  Level Estimated
Tue 07:19:00 AM 61.2106 -0.6030 275° West  Level Estimated
Tue 07:20:00 AM 61.2203 -0.8596 275° West  Level Estimated
Tue 07:21:00 AM 61.2295 -1.1163 274° West  Level Estimated
Tue 07:22:00 AM 61.2382 -1.3731 274° West  Level Estimated
Tue 07:23:00 AM 61.2464 -1.6300 274° West  Level Estimated
Tue 07:24:00 AM 61.2541 -1.8872 274° West  Level Estimated
Tue 07:25:00 AM 61.2613 -2.1444 273° West  Level Estimated
Tue 07:26:00 AM 61.2681 -2.4017 273° West  Level Estimated
Tue 07:27:00 AM 61.2743 -2.6592 273° West  Level Estimated
Tue 07:28:00 AM 61.2801 -2.9167 273° West  Level Estimated
Tue 07:29:00 AM 61.2854 -3.1743 273° West  Level Estimated
Tue 07:30:00 AM 61.2902 -3.4321 272° West  Level Estimated
Tue 07:31:00 AM 61.2945 -3.6899 272° West  Level Estimated
Tue 07:32:00 AM 61.2983 -3.9477 272° West  Level Estimated
Tue 07:33:00 AM 61.3017 -4.2056 272° West  Level Estimated
Tue 07:34:00 AM 61.3045 -4.4636 271° West  Level Estimated
Tue 07:35:00 AM 61.3069 -4.7216 271° West  Level Estimated
Tue 07:36:00 AM 61.3087 -4.9797 271° West  Level Estimated
Tue 07:37:00 AM 61.3101 -5.2377 271° West  Level Estimated
Tue 07:38:00 AM 61.3110 -5.4958 271° West  Level Estimated
Tue 07:39:00 AM 61.3114 -5.7539 270° West  Level Estimated
Tue 07:40:00 AM 61.3113 -6.0120 270° West  Level Estimated
Tue 07:41:00 AM 61.3107 -6.2701 270° West  Level Estimated
Tue 07:42:00 AM 61.3096 -6.5282 270° West  Level Estimated
Tue 07:43:00 AM 61.3081 -6.7863 269° West  Level Estimated
Tue 07:44:00 AM 61.3060 -7.0443 269° West  Level Estimated
Tue 07:45:00 AM 61.3035 -7.3023 269° West  Level Estimated
Tue 07:46:00 AM 61.3004 -7.5603 269° West  Level Estimated
Tue 07:47:00 AM 61.2969 -7.8182 268° West  Level Estimated
Tue 07:48:00 AM 61.2929 -8.0760 268° West  Level Estimated
Tue 07:49:00 AM 61.2884 -8.3337 268° West  Level Estimated
Tue 07:50:00 AM 61.2834 -8.5914 268° West  Level Estimated
Tue 07:51:00 AM 61.2780 -8.8490 268° West  Level Estimated
Tue 07:52:00 AM 61.2720 -9.1066 267° West  Level Estimated
Tue 07:53:00 AM 61.2655 -9.3639 267° West  Level Estimated
Tue 07:54:00 AM 61.2586 -9.6213 267° West  Level Estimated
Tue 07:55:00 AM 61.2512 -9.8784 267° West  Level Estimated
Tue 07:56:00 AM 61.2433 -10.1355 266° West  Level Estimated
Tue 07:57:00 AM 61.2349 -10.3924 266° West  Level Estimated
Tue 07:58:00 AM 61.2260 -10.6492 266° West  Level Estimated
Tue 07:59:00 AM 61.2166 -10.9058 266° West  Level Estimated
Tue 08:00:00 AM 61.2068 -11.1623 266° West  Level Estimated
Tue 08:01:00 AM 61.1964 -11.4186 265° West  Level Estimated
Tue 08:02:00 AM 61.1856 -11.6747 265° West  Level Estimated
Tue 08:03:00 AM 61.1743 -11.9307 265° West  Level Estimated
Tue 08:04:00 AM 61.1625 -12.1865 265° West  Level Estimated
Tue 08:05:00 AM 61.1502 -12.4420 264° West  Level Estimated
Tue 08:06:00 AM 61.1375 -12.6974 264° West  Level Estimated
Tue 08:07:00 AM 61.1243 -12.9526 264° West  Level Estimated
Tue 08:08:00 AM 61.1106 -13.2075 264° West  Level Estimated
Tue 08:09:00 AM 61.0964 -13.4622 264° West  Level Estimated
Tue 08:10:00 AM 61.0817 -13.7167 263° West  Level Estimated
Tue 08:11:00 AM 61.0666 -13.9710 263° West  Level Estimated
Tue 08:12:00 AM 61.0509 -14.2250 263° West  Level Estimated
Tue 08:13:00 AM 61.0348 -14.4787 263° West  Level Estimated
Tue 08:14:00 AM 61.0182 -14.7322 262° West  Level Estimated
Tue 08:15:00 AM 61.0012 -14.9854 262° West  Level Estimated
Tue 08:16:00 AM 60.9837 -15.2383 262° West  Level Estimated
Tue 08:17:00 AM 60.9657 -15.4910 262° West  Level Estimated
Tue 08:18:00 AM 60.9472 -15.7434 262° West  Level Estimated
Tue 08:19:00 AM 60.9283 -15.9955 261° West  Level Estimated
Tue 08:20:00 AM 60.9089 -16.2472 261° West  Level Estimated
Tue 08:21:00 AM 60.8890 -16.4987 261° West  Level Estimated
Tue 08:22:00 AM 60.8686 -16.7498 261° West  Level Estimated
Tue 08:23:00 AM 60.8478 -17.0006 260° West  Level Estimated
Tue 08:24:00 AM 60.8265 -17.2511 260° West  Level Estimated
Tue 08:25:00 AM 60.8048 -17.5013 260° West  Level Estimated
Tue 08:26:00 AM 60.7826 -17.7511 260° West  Level Estimated
Tue 08:27:00 AM 60.7599 -18.0005 260° West  Level Estimated
Tue 08:28:00 AM 60.7367 -18.2496 259° West  Level Estimated
Tue 08:29:00 AM 60.7131 -18.4984 259° West  Level Estimated
Tue 08:30:00 AM 60.6891 -18.7468 259° West  Level Estimated
Tue 08:31:00 AM 60.6646 -18.9948 259° West  Level Estimated
Tue 08:32:00 AM 60.6396 -19.2424 258° West  Level Estimated
Tue 08:33:00 AM 60.6142 -19.4896 258° West  Level Estimated
Tue 08:34:00 AM 60.5883 -19.7364 258° West  Level Estimated
Tue 08:35:00 AM 60.5619 -19.9829 258° West  Level Estimated
Tue 08:36:00 AM 60.5351 -20.2289 258° West  Level Estimated
Tue 08:37:00 AM 60.5079 -20.4745 257° West  Level Estimated
Tue 08:38:00 AM 60.4802 -20.7197 257° West  Level Estimated
Tue 08:39:00 AM 60.4520 -20.9645 257° West  Level Estimated
Tue 08:40:00 AM 60.4234 -21.2089 257° West  Level Estimated
Tue 08:41:00 AM 60.3944 -21.4528 257° West  Level Estimated
Tue 08:42:00 AM 60.3649 -21.6963 256° West  Level Estimated
Tue 08:43:00 AM 60.3350 -21.9393 256° West  Level Estimated
Tue 08:44:00 AM 60.3046 -22.1819 256° West  Level Estimated
Tue 08:45:00 AM 60.2738 -22.4241 256° West  Level Estimated
Tue 08:46:00 AM 60.2425 -22.6658 255° West  Level Estimated
Tue 08:47:00 AM 60.2108 -22.9070 255° West  Level Estimated
Tue 08:48:00 AM 60.1787 -23.1477 255° West  Level Estimated
Tue 08:49:00 AM 60.1461 -23.3880 255° West  Level Estimated
Tue 08:50:00 AM 60.1131 -23.6278 255° West  Level Estimated
Tue 08:51:00 AM 60.0797 -23.8671 254° West  Level Estimated
Tue 08:52:00 AM 60.0458 -24.1059 254° West  Level Estimated
Tue 08:53:00 AM 60.0115 -24.3442 254° West  Level Estimated
Tue 08:54:00 AM 59.9768 -24.5821 254° West  Level Estimated
Tue 08:55:00 AM 59.9417 -24.8194 254° West  Level Estimated
Tue 08:56:00 AM 59.9061 -25.0562 253° West  Level Estimated
Tue 08:57:00 AM 59.8701 -25.2926 253° West  Level Estimated
Tue 08:58:00 AM 59.8337 -25.5284 253° West  Level Estimated
Tue 08:59:00 AM 59.7968 -25.7637 253° West  Level Estimated
Tue 09:00:00 AM 59.7596 -25.9984 253° West  Level Estimated
Tue 09:01:00 AM 59.7219 -26.2327 252° West  Level Estimated
Tue 09:02:00 AM 59.6838 -26.4664 252° West  Level Estimated
Tue 09:03:00 AM 59.6453 -26.6995 252° West  Level Estimated
Tue 09:04:00 AM 59.6064 -26.9322 252° West  Level Estimated
Tue 09:05:00 AM 59.5671 -27.1643 252° West  Level Estimated
Tue 09:06:00 AM 59.5273 -27.3958 251° West  Level Estimated
Tue 09:07:00 AM 59.4872 -27.6268 251° West  Level Estimated
Tue 09:08:00 AM 59.4466 -27.8573 251° West  Level Estimated
Tue 09:09:00 AM 59.4056 -28.0872 251° West  Level Estimated
Tue 09:10:00 AM 59.3643 -28.3165 251° West  Level Estimated
Tue 09:11:00 AM 59.3225 -28.5453 250° West  Level Estimated
Tue 09:12:00 AM 59.2803 -28.7735 250° West  Level Estimated
Tue 09:13:00 AM 59.2378 -29.0012 250° West  Level Estimated
Tue 09:14:00 AM 59.1948 -29.2282 250° West  Level Estimated
Tue 09:15:00 AM 59.1515 -29.4547 250° West  Level Estimated
Tue 09:16:00 AM 59.1077 -29.6807 249° West  Level Estimated
Tue 09:17:00 AM 59.0636 -29.9060 249° West  Level Estimated
Tue 09:18:00 AM 59.0190 -30.1308 249° West  Level Estimated
Tue 09:19:00 AM 58.9741 -30.3549 249° West  Level Estimated
Tue 09:20:00 AM 58.9288 -30.5786 249° West  Level Estimated
Tue 09:21:00 AM 58.8831 -30.8016 248° West  Level Estimated
Tue 09:22:00 AM 58.8371 -31.0240 248° West  Level Estimated
Tue 09:23:00 AM 58.7906 -31.2458 248° West  Level Estimated
Tue 09:24:00 AM 58.7438 -31.4670 248° West  Level Estimated
Tue 09:25:00 AM 58.6966 -31.6877 248° West  Level Estimated
Tue 09:26:00 AM 58.6490 -31.9077 248° West  Level Estimated
Tue 09:27:00 AM 58.6010 -32.1271 247° West  Level Estimated
Tue 09:28:00 AM 58.5527 -32.3460 247° West  Level Estimated
Tue 09:29:00 AM 58.5040 -32.5642 247° West  Level Estimated
Tue 09:30:00 AM 58.4549 -32.7818 247° West  Level Estimated
Tue 09:31:00 AM 58.4055 -32.9988 247° West  Level Estimated
Tue 09:32:00 AM 58.3557 -33.2152 246° West  Level Estimated
Tue 09:33:00 AM 58.3055 -33.4310 246° West  Level Estimated
Tue 09:34:00 AM 58.2550 -33.6461 246° West  Level Estimated
Tue 09:35:00 AM 58.2040 -33.8607 246° West  Level Estimated
Tue 09:36:00 AM 58.1528 -34.0746 246° West  Level Estimated
Tue 09:37:00 AM 58.1012 -34.2880 245° Southwest  Level Estimated
Tue 09:38:00 AM 58.0492 -34.5007 245° Southwest  Level Estimated
Tue 09:39:00 AM 57.9969 -34.7128 245° Southwest  Level Estimated
Tue 09:40:00 AM 57.9442 -34.9242 245° Southwest  Level Estimated
Tue 09:41:00 AM 57.8912 -35.1351 245° Southwest  Level Estimated
Tue 09:42:00 AM 57.8378 -35.3453 245° Southwest  Level Estimated
Tue 09:43:00 AM 57.7841 -35.5549 244° Southwest  Level Estimated
Tue 09:44:00 AM 57.7301 -35.7639 244° Southwest  Level Estimated
Tue 09:45:00 AM 57.6757 -35.9722 244° Southwest  Level Estimated
Tue 09:46:00 AM 57.6209 -36.1799 244° Southwest  Level Estimated
Tue 09:47:00 AM 57.5658 -36.3870 244° Southwest  Level Estimated
Tue 09:48:00 AM 57.5104 -36.5935 244° Southwest  Level Estimated
Tue 09:49:00 AM 57.4547 -36.7993 243° Southwest  Level Estimated
Tue 09:50:00 AM 57.3976 -37.0081 243° Southwest  Level Estimated
Tue 09:51:00 AM 57.3401 -37.2164 243° Southwest  Level Estimated
Tue 09:52:00 AM 57.2823 -37.4241 243° Southwest  Level Estimated
Tue 09:53:00 AM 57.2241 -37.6312 243° Southwest  Level Estimated
Tue 09:54:00 AM 57.1656 -37.8376 242° Southwest  Level Estimated
Tue 09:55:00 AM 57.1068 -38.0433 242° Southwest  Level Estimated
Tue 09:56:00 AM 57.0476 -38.2483 242° Southwest  Level Estimated
Tue 09:57:00 AM 56.9881 -38.4528 242° Southwest  Level Estimated
Tue 09:58:00 AM 56.9283 -38.6565 242° Southwest  Level Estimated
Tue 09:59:00 AM 56.8681 -38.8596 242° Southwest  Level Estimated
Tue 10:00:00 AM 56.8076 -39.0621 241° Southwest  Level Estimated
Tue 10:01:00 AM 56.7468 -39.2639 241° Southwest  Level Estimated
Tue 10:02:00 AM 56.6856 -39.4650 241° Southwest  Level Estimated
Tue 10:03:00 AM 56.6241 -39.6655 241° Southwest  Level Estimated
Tue 10:04:00 AM 56.5624 -39.8653 241° Southwest  Level Estimated
Tue 10:05:00 AM 56.5002 -40.0645 241° Southwest  Level Estimated
Tue 10:06:00 AM 56.4378 -40.2631 240° Southwest  Level Estimated
Tue 10:07:00 AM 56.3751 -40.4609 240° Southwest  Level Estimated
Tue 10:08:00 AM 56.3120 -40.6582 240° Southwest  Level Estimated
Tue 10:09:00 AM 56.2486 -40.8547 240° Southwest  Level Estimated
Tue 10:10:00 AM 56.1850 -41.0507 240° Southwest  Level Estimated
Tue 10:11:00 AM 56.1210 -41.2459 240° Southwest  Level Estimated
Tue 10:12:00 AM 56.0567 -41.4406 239° Southwest  Level Estimated
Tue 10:13:00 AM 55.9921 -41.6345 239° Southwest  Level Estimated
Tue 10:14:00 AM 55.9271 -41.8279 239° Southwest  Level Estimated
Tue 10:15:00 AM 55.8619 -42.0205 239° Southwest  Level Estimated
Tue 10:16:00 AM 55.7964 -42.2126 239° Southwest  Level Estimated
Tue 10:17:00 AM 55.7306 -42.4039 239° Southwest  Level Estimated
Tue 10:18:00 AM 55.6645 -42.5947 238° Southwest  Level Estimated
Tue 10:19:00 AM 55.5981 -42.7848 238° Southwest  Level Estimated
Tue 10:20:00 AM 55.5314 -42.9742 238° Southwest  Level Estimated
Tue 10:21:00 AM 55.4644 -43.1630 238° Southwest  Level Estimated
Tue 10:22:00 AM 55.3972 -43.3512 238° Southwest  Level Estimated
Tue 10:23:00 AM 55.3296 -43.5387 238° Southwest  Level Estimated
Tue 10:24:00 AM 55.2618 -43.7256 238° Southwest  Level Estimated
Tue 10:25:00 AM 55.1936 -43.9118 237° Southwest  Level Estimated
Tue 10:26:00 AM 55.1252 -44.0974 237° Southwest  Level Estimated
Tue 10:27:00 AM 55.0565 -44.2824 237° Southwest  Level Estimated
Tue 10:27:29 AM 63.0500 -55.3667 236° Southwest 480 552 36,000  Level Gander Center
Tue 10:28:00 AM 54.9875 -44.4667 237° Southwest  Level Estimated
Tue 10:28:29 AM 63.0167 -55.6167 254° West 480 552 36,000  Level Gander Center
Tue 10:29:00 AM 54.9168 -44.6544 237° Southwest  Level Estimated
Tue 10:29:29 AM 62.9500 -55.8833 241° Southwest 470 541 36,000  Level Gander Center
Tue 10:30:00 AM 54.8457 -44.8415 237° Southwest  Level Estimated
Tue 10:30:29 AM 62.9000 -56.1500 248° West 480 552 36,000  Level Gander Center
Tue 10:31:00 AM 54.7744 -45.0279 236° Southwest  Level Estimated
Tue 10:31:29 AM 62.8333 -56.4167 241° Southwest 470 541 36,000  Level Gander Center
Tue 10:32:00 AM 54.7027 -45.2136 236° Southwest  Level Estimated
Tue 10:32:29 AM 62.7833 -56.6833 248° West 490 564 36,000  Level Gander Center
Tue 10:33:29 AM 62.7167 -56.9500 241° Southwest 480 552 36,000  Level Gander Center
Tue 10:34:29 AM 62.6667 -57.2000 247° West 480 552 36,000  Level Gander Center
Tue 10:35:29 AM 62.6167 -57.4667 248° West 480 552 36,000  Level Gander Center
Tue 10:36:29 AM 62.5667 -57.7167 247° West 490 564 36,000  Level Gander Center
Tue 10:37:29 AM 62.5000 -57.9833 242° Southwest 490 564 36,000  Level Gander Center
Tue 10:38:29 AM 62.4333 -58.2333 240° Southwest 490 564 36,000  Level Gander Center
Tue 10:39:29 AM 62.3833 -58.5000 248° West 480 552 36,000  Level Gander Center
Tue 10:40:29 AM 62.3167 -58.7833 243° Southwest 490 564 36,000  Level Gander Center
Tue 10:41:29 AM 62.2500 -59.0333 240° Southwest 480 552 36,000  Level Gander Center
Tue 10:42:29 AM 62.2000 -59.3000 248° West 480 552 36,000  Level Gander Center
Tue 10:43:29 AM 62.1333 -59.5500 240° Southwest 490 564 36,000  Level Gander Center
Tue 10:44:29 AM 62.0667 -59.8000 240° Southwest 490 564 36,000  Level Gander Center
Tue 10:45:29 AM 61.9833 -60.0500 235° Southwest 490 564 36,000  Level Gander Center
Tue 10:46:29 AM 61.9000 -60.2667 231° Southwest 480 552 36,000  Level Gander Center
Tue 10:47:29 AM 61.8333 -60.4667 235° Southwest 490 564 36,000  Level Gander Center
Tue 10:48:29 AM 61.7333 -60.7167 230° Southwest 490 564 36,000  Level Gander Center
Tue 10:49:29 AM 61.6500 -60.9333 231° Southwest 490 564 36,000  Level Gander Center
Tue 10:50:29 AM 61.5667 -61.1500 231° Southwest 490 564 36,000  Level Gander Center
Tue 10:51:29 AM 61.4667 -61.3500 224° Southwest 500 575 36,000  Level Gander Center
Tue 10:52:29 AM 61.3833 -61.6000 235° Southwest 500 575 36,000  Level Gander Center
Tue 10:53:29 AM 61.2833 -61.8000 224° Southwest 510 587 36,000  Level Gander Center
Tue 10:54:29 AM 61.2000 -62.0333 234° Southwest 510 587 36,000  Level Gander Center
Tue 10:55:29 AM 61.1167 -62.2500 232° Southwest 510 587 36,000  Level Gander Center
Tue 10:56:29 AM 61.0167 -62.4500 224° Southwest 500 575 36,000  Level Gander Center
Tue 10:57:29 AM 60.9167 -62.6500 224° Southwest 510 587 36,000  Level Gander Center
Tue 10:58:29 AM 60.8333 -62.9167 237° Southwest 510 587 36,000  Level Gander Center
Tue 10:59:29 AM 60.7333 -63.1167 224° Southwest 500 575 36,000  Level Gander Center
Tue 11:00:29 AM 60.6500 -63.3167 230° Southwest 490 564 36,000  Level Gander Center
Tue 11:01:29 AM 60.5667 -63.5500 234° Southwest 490 564 36,000  Level Gander Center
Tue 11:02:29 AM 60.4667 -63.7500 225° Southwest 490 564 36,000  Level Gander Center
Tue 11:03:29 AM 60.3667 -63.9333 222° Southwest 490 564 36,000  Level Gander Center
Tue 11:04:29 AM 60.2833 -64.1333 230° Southwest 490 564 36,000  Level Gander Center
Tue 11:05:29 AM 60.1833 -64.3333 225° Southwest 490 564 36,000  Level Gander Center
Tue 11:06:29 AM 60.1000 -64.5167 228° Southwest 490 564 36,000  Level Gander Center
Tue 11:07:29 AM 60.0000 -64.7167 225° Southwest 490 564 36,000  Level Gander Center
Tue 11:08:29 AM 59.9000 -64.9333 227° Southwest 490 564 36,000  Level Gander Center
Tue 11:09:29 AM 59.8167 -65.1167 228° Southwest 480 552 36,000  Level Gander Center
Tue 11:10:29 AM 59.7333 -65.3167 230° Southwest 480 552 36,000  Level Gander Center
Tue 11:11:29 AM 59.6333 -65.5000 223° Southwest 480 552 36,000  Level Gander Center
Tue 11:12:29 AM 59.5500 -65.6833 228° Southwest 480 552 36,000  Level Gander Center
Tue 11:13:29 AM 59.4333 -65.9000 223° Southwest 480 552 36,000  Level Gander Center
Tue 11:14:29 AM 59.3500 -66.0833 228° Southwest 490 564 36,000  Level Gander Center
Tue 11:15:29 AM 59.2667 -66.2667 228° Southwest 480 552 36,000  Level Gander Center
Tue 11:16:29 AM 59.1667 -66.4500 223° Southwest 480 552 36,000  Level Gander Center
Tue 11:17:29 AM 59.0667 -66.6333 223° Southwest 480 552 36,000  Level Gander Center
Tue 11:18:29 AM 58.9667 -66.8167 223° Southwest 480 552 36,000  Level Gander Center
Tue 11:19:29 AM 58.8833 -66.9833 226° Southwest 480 552 36,000  Level Gander Center
Tue 11:20:29 AM 58.7833 -67.1667 224° Southwest 480 552 36,000  Level Gander Center
Tue 11:21:29 AM 58.7000 -67.3500 229° Southwest 480 552 36,000  Level Gander Center
Tue 11:22:29 AM 58.5833 -67.5500 222° Southwest 480 552 36,000  Level Gander Center
Tue 11:23:29 AM 58.5000 -67.7333 229° Southwest 480 552 36,000  Level Gander Center
Tue 11:24:29 AM 58.4000 -67.9000 221° Southwest 480 552 36,000  Level Gander Center
Tue 11:25:29 AM 58.3000 -68.0833 224° Southwest 480 552 36,000  Level Gander Center
Tue 11:26:29 AM 58.2000 -68.2500 221° Southwest 490 564 36,000  Level Gander Center
Tue 11:27:29 AM 58.1167 -68.4500 232° Southwest 500 575 36,000  Level Gander Center
Tue 11:28:20 AM 58.0167 -68.5333 204° Southwest 520 598 36,000  Level Gander Center
Tue 11:29:20 AM 57.9167 -68.7000 222° Southwest 480 552 36,000  Level Gander Center
Tue 11:30:20 AM 57.8167 -68.8333 215° Southwest 480 552 36,000  Level Gander Center
Tue 11:31:20 AM 57.7167 -68.9667 215° Southwest 470 541 36,000  Level Gander Center
Tue 11:32:20 AM 57.6000 -69.1333 217° Southwest 470 541 36,000  Level Gander Center
Tue 11:33:20 AM 57.5000 -69.2667 216° Southwest 470 541 36,000  Level Gander Center
Tue 11:34:20 AM 57.3833 -69.4000 212° Southwest 470 541 36,000  Level Gander Center
Tue 11:35:20 AM 57.3000 -69.5333 221° Southwest 470 541 36,000  Level Gander Center
Tue 11:36:20 AM 57.1833 -69.7000 218° Southwest 470 541 36,000  Level Gander Center
Tue 11:37:20 AM 57.0667 -69.8333 212° Southwest 470 541 36,000  Level Gander Center
Tue 11:38:36 AM 56.9333 -69.9500 206° Southwest 470 541 36,000  Level Montreal Center
Tue 11:39:36 AM 56.8333 -70.0833 216° Southwest 470 541 36,000  Level Montreal Center
Tue 11:40:36 AM 56.7333 -70.2167 216° Southwest 470 541 36,000  Level Montreal Center
Tue 11:41:36 AM 56.6167 -70.3667 215° Southwest 470 541 36,000  Level Montreal Center
Tue 11:42:36 AM 56.5167 -70.5000 216° Southwest 470 541 36,000  Level Montreal Center
Tue 11:43:36 AM 56.4000 -70.6333 212° Southwest 470 541 36,000  Level Montreal Center
Tue 11:44:36 AM 56.3000 -70.7667 217° Southwest 470 541 36,000  Level Montreal Center
Tue 11:45:36 AM 56.1833 -70.8833 209° Southwest 470 541 36,000  Level Montreal Center
Tue 11:46:36 AM 56.0833 -71.0167 217° Southwest 470 541 36,000  Level Montreal Center
Tue 11:47:36 AM 55.9667 -71.1500 213° Southwest 460 529 36,000  Level Montreal Center
Tue 11:48:36 AM 55.8667 -71.2833 217° Southwest 470 541 36,000  Level Montreal Center
Tue 11:49:36 AM 55.7667 -71.4167 217° Southwest 460 529 36,000  Level Montreal Center
Tue 11:50:36 AM 55.6500 -71.5500 213° Southwest 470 541 36,000  Level Montreal Center
Tue 11:51:36 AM 55.5333 -71.6833 213° Southwest 470 541 36,000  Level Montreal Center
Tue 11:52:36 AM 55.4167 -71.8000 210° Southwest 460 529 36,000  Level Montreal Center
Tue 11:53:36 AM 55.3167 -71.9167 214° Southwest 460 529 36,000  Level Montreal Center
Tue 11:54:36 AM 55.2167 -72.0333 214° Southwest 470 541 36,000  Level Montreal Center
Tue 11:55:36 AM 55.1000 -72.1667 213° Southwest 470 541 36,000  Level Montreal Center
Tue 11:56:36 AM 54.9833 -72.3000 213° Southwest 470 541 36,000  Level Montreal Center
Tue 11:57:36 AM 54.8667 -72.4167 210° Southwest 470 541 36,000  Level Montreal Center
Tue 11:58:36 AM 54.7500 -72.5167 206° Southwest 470 541 36,000  Level Montreal Center
Tue 11:59:36 AM 54.6333 -72.6167 206° Southwest 470 541 36,000  Level Montreal Center
Tue 12:00:36 PM 54.5333 -72.7500 218° Southwest 470 541 36,000  Level Montreal Center
Tue 12:01:36 PM 54.4167 -72.8333 203° Southwest 470 541 36,000  Level Montreal Center
Tue 12:02:36 PM 54.3000 -72.9333 207° Southwest 460 529 36,000  Level Montreal Center
Tue 12:03:36 PM 54.1833 -73.0500 210° Southwest 460 529 36,000  Level Montreal Center
Tue 12:04:36 PM 54.0667 -73.1500 207° Southwest 460 529 36,000  Level Montreal Center
Tue 12:05:36 PM 53.9500 -73.2500 207° Southwest 470 541 36,000  Level Montreal Center
Tue 12:06:36 PM 53.8333 -73.3333 203° Southwest 470 541 36,000  Level Montreal Center
Tue 12:07:36 PM 53.7167 -73.4667 214° Southwest 470 541 36,000  Level Montreal Center
Tue 12:08:36 PM 53.6000 -73.5500 203° Southwest 470 541 36,000  Level Montreal Center
Tue 12:09:36 PM 53.4833 -73.6500 207° Southwest 470 541 36,000  Level Montreal Center
Tue 12:10:36 PM 53.3667 -73.7333 203° Southwest 470 541 36,000  Level Montreal Center
Tue 12:11:36 PM 53.2500 -73.8167 203° Southwest 470 541 36,000  Level Montreal Center
Tue 12:12:36 PM 53.1333 -73.9500 214° Southwest 460 529 36,000  Level Montreal Center
Tue 12:13:36 PM 53.0167 -74.0333 203° Southwest 450 518 36,000  Level Montreal Center
Tue 12:14:36 PM 52.9000 -74.1167 203° Southwest 450 518 36,000  Level Montreal Center
Tue 12:15:36 PM 52.8000 -74.2167 211° Southwest 450 518 36,000  Level Montreal Center
Tue 12:16:36 PM 52.6667 -74.3000 201° Southwest 450 518 36,000  Level Montreal Center
Tue 12:17:36 PM 52.5667 -74.3833 207° Southwest 450 518 36,000  Level Montreal Center
Tue 12:18:36 PM 52.4500 -74.5000 211° Southwest 450 518 36,000  Level Montreal Center
Tue 12:19:36 PM 52.3333 -74.5833 204° Southwest 450 518 36,000  Level Montreal Center
Tue 12:20:36 PM 52.2333 -74.6667 207° Southwest 440 506 36,000  Level Montreal Center
Tue 12:21:36 PM 52.1167 -74.7500 204° Southwest 450 518 36,000  Level Montreal Center
Tue 12:22:36 PM 51.9833 -74.8667 208° Southwest 460 529 36,000  Level Montreal Center
Tue 12:23:36 PM 51.8833 -74.9500 207° Southwest 460 529 36,000  Level Montreal Center
Tue 12:24:37 PM 51.7667 -75.0333 204° Southwest 460 529 36,000  Level Montreal Center
Tue 12:25:37 PM 51.6500 -75.1167 204° Southwest 450 518 36,000  Level Montreal Center
Tue 12:26:37 PM 51.5333 -75.2000 204° Southwest 450 518 36,000  Level Montreal Center
Tue 12:27:37 PM 51.4167 -75.2833 204° Southwest 460 529 36,000  Level Montreal Center
Tue 12:28:37 PM 51.3000 -75.3667 204° Southwest 450 518 36,000  Level Montreal Center
Tue 12:29:37 PM 51.1833 -75.4833 212° Southwest 450 518 36,000  Level Montreal Center
Tue 12:30:37 PM 51.0833 -75.5667 208° Southwest 450 518 36,000  Level Montreal Center
Tue 12:31:37 PM 50.9667 -75.6500 204° Southwest 450 518 36,000  Level Montreal Center
Tue 12:32:37 PM 50.8500 -75.7333 204° Southwest 450 518 36,000  Level Montreal Center
Tue 12:33:37 PM 50.7333 -75.8000 200° South 440 506 36,000  Level Montreal Center
Tue 12:34:37 PM 50.6333 -75.8833 208° Southwest 440 506 36,000  Level Montreal Center
Tue 12:35:37 PM 50.5167 -76.0000 212° Southwest 440 506 36,000  Level Montreal Center
Tue 12:36:37 PM 50.4000 -76.0667 200° South 440 506 36,000  Level Montreal Center
Tue 12:37:37 PM 50.2833 -76.1500 205° Southwest 440 506 36,000  Level Montreal Center
Tue 12:38:37 PM 50.1833 -76.2333 208° Southwest 440 506 36,000  Level Montreal Center
Tue 12:39:37 PM 50.0667 -76.3000 200° South 440 506 36,000  Level Montreal Center
Tue 12:40:37 PM 49.9500 -76.3833 205° Southwest 440 506 36,000  Level Montreal Center
Tue 12:41:37 PM 49.8333 -76.4667 205° Southwest 440 506 36,000  Level Montreal Center
Tue 12:42:37 PM 49.7167 -76.5333 200° South 440 506 36,000  Level Montreal Center
Tue 12:43:37 PM 49.6167 -76.6167 208° Southwest 440 506 36,000  Level Montreal Center
Tue 12:44:37 PM 49.5000 -76.6833 200° South 430 495 36,000  Level Montreal Center
Tue 12:45:37 PM 49.3833 -76.7667 205° Southwest 450 518 36,000  Level Montreal Center
Tue 12:46:37 PM 49.2833 -76.8667 213° Southwest 420 483 36,000  Level Montreal Center
Tue 12:47:37 PM 49.1667 -76.9167 196° South 440 506 36,000  Level Montreal Center
Tue 12:48:37 PM 49.0500 -77.0167 209° Southwest 430 495 36,000  Level Montreal Center
Tue 12:49:37 PM 48.9500 -77.1000 209° Southwest 440 506 36,000  Level Montreal Center
Tue 12:50:37 PM 48.8500 -77.1667 204° Southwest 430 495 36,000  Level Montreal Center
Tue 12:51:37 PM 48.7167 -77.2333 198° South 430 495 36,000  Level Montreal Center
Tue 12:52:37 PM 48.6167 -77.3167 209° Southwest 440 506 36,000  Level Montreal Center
Tue 12:53:37 PM 48.5000 -77.3833 201° Southwest 430 495 36,000  Level Montreal Center
Tue 12:54:37 PM 48.3833 -77.4667 205° Southwest 440 506 36,000  Level Montreal Center
Tue 12:55:37 PM 48.2833 -77.5333 204° Southwest 430 495 36,000  Level Montreal Center
Tue 12:56:37 PM 48.1667 -77.6000 201° Southwest 430 495 36,000  Level Montreal Center
Tue 12:57:37 PM 48.0667 -77.6833 209° Southwest 430 495 36,000  Level Montreal Center
Tue 12:58:37 PM 47.9500 -77.7500 201° Southwest 430 495 36,000  Level Montreal Center
Tue 12:59:37 PM 47.8333 -77.8167 201° Southwest 430 495 36,000  Level Montreal Center
Tue 01:00:37 PM 47.7167 -77.8833 201° Southwest 430 495 36,000  Level Montreal Center
Tue 01:01:37 PM 47.6000 -77.9667 206° Southwest 430 495 36,000  Level Montreal Center
Tue 01:02:37 PM 47.5000 -78.0333 204° Southwest 430 495 36,000  Level Montreal Center
Tue 01:03:37 PM 47.4000 -78.1000 204° Southwest 420 483 36,000  Level Montreal Center
Tue 01:04:37 PM 47.2833 -78.1667 201° Southwest 420 483 36,000  Level Montreal Center
Tue 01:05:37 PM 47.1833 -78.2333 204° Southwest 420 483 36,000  Level Montreal Center
Tue 01:06:37 PM 47.0833 -78.3167 210° Southwest 420 483 36,000  Level Montreal Center
Tue 01:07:37 PM 46.9667 -78.3833 201° Southwest 420 483 36,000  Level Montreal Center
Tue 01:08:37 PM 46.8500 -78.4500 201° Southwest 420 483 36,000  Level Montreal Center
Tue 01:13:49 PM 46.2973 -78.7858 203° Southwest 424 488 36,000  Level FlightAware ADS-B (CYYZ)
Tue 01:14:18 PM 46.2616 -78.8073 203° Southwest 422 486 36,000  Level FlightAware ADS-B (CYYZ)
Tue 01:14:49 PM 46.1889 -78.8513 203° Southwest 421 484 36,000  Level FlightAware ADS-B (CYYZ)
Tue 01:15:19 PM 46.1363 -78.8831 203° Southwest 421 484 36,000  Level FlightAware ADS-B (CYYZ)
Tue 01:15:46 PM 46.1088 -78.8997 203° Southwest 421 484 36,000  Level FlightAware ADS-B (CYYZ)
Tue 01:16:19 PM 46.0366 -78.9432 203° Southwest 420 483 36,000  Level FlightAware ADS-B (CYYZ)
Tue 01:16:49 PM 45.9752 -78.9801 203° Southwest 418 481 36,000  Level FlightAware ADS-B (CYYZ)
Tue 01:17:19 PM 45.9246 -79.0103 203° Southwest 418 481 36,000  Level FlightAware ADS-B (CYYZ)
Tue 01:17:49 PM 45.8707 -79.0427 203° Southwest 420 483 36,000  Level FlightAware ADS-B (CYYZ)
Tue 01:18:19 PM 45.8154 -79.0758 203° Southwest 420 483 36,000  Level FlightAware ADS-B (CYYZ)
Tue 01:18:49 PM 45.7652 -79.1056 203° Southwest 421 484 36,000  Level FlightAware ADS-B (CYYZ)
Tue 01:19:20 PM 45.7082 -79.1394 203° Southwest 421 484 36,000  Level FlightAware ADS-B (CYYZ)
Tue 01:19:49 PM 45.6540 -79.1714 203° Southwest 421 484 36,000  Level FlightAware ADS-B (CYYZ)
Tue 01:20:19 PM 45.5997 -79.2035 203° Southwest 421 484 36,000  Level FlightAware ADS-B (CYYZ)
Tue 01:20:49 PM 45.5510 -79.2323 203° Southwest 422 486 36,000  Level FlightAware ADS-B (CYYZ)
Tue 01:21:19 PM 45.4924 -79.2667 203° Southwest 421 484 36,000  Level FlightAware ADS-B (CYYZ)
Tue 01:21:49 PM 45.4373 -79.2991 203° Southwest 421 484 36,000  Level FlightAware ADS-B (CYYZ)
Tue 01:22:19 PM 45.3862 -79.3291 203° Southwest 420 483 36,000  Level FlightAware ADS-B (CYYZ)
Tue 01:22:49 PM 45.3301 -79.3621 203° Southwest 421 484 36,000  Level FlightAware ADS-B (CYYZ)
Tue 01:23:19 PM 45.2762 -79.3935 203° Southwest 420 483 36,000  Level FlightAware ADS-B (CYYZ)
Tue 01:23:49 PM 45.2230 -79.4246 203° Southwest 421 484 36,000  Level FlightAware ADS-B (CYYZ)
Tue 01:24:20 PM 45.1713 -79.4547 203° Southwest 421 484 36,000  Level FlightAware ADS-B (CYYZ)
Tue 01:24:49 PM 45.1162 -79.4867 203° Southwest 420 483 36,000  Level FlightAware ADS-B (CYYZ)
Tue 01:25:19 PM 45.0620 -79.5180 203° Southwest 418 481 36,000  Level FlightAware ADS-B (CYYZ)
Tue 01:25:48 PM 45.0979 -79.4973 202° Southwest 418 481 36,000  Level FlightAware ADS-B (EPGD / GDN)
Tue 01:25:49 PM 45.0084 -79.5490 203° Southwest 418 481 36,000  Level FlightAware ADS-B (CYYZ)
Tue 01:26:19 PM 44.9553 -79.5795 203° Southwest 416 479 36,000  Level FlightAware ADS-B (CYYZ)
Tue 01:26:47 PM 44.9179 -79.6012 203° Southwest 416 479 36,000  Level FlightAware ADS-B (CYYZ)
Tue 01:27:36 PM 44.8763 -79.6251 202° Southwest 415 478 36,000  Level FlightAware ADS-B (EPLB / LUZ)
Tue 01:28:16 PM 44.7518 -79.6965 202° Southwest 416 479 36,000  Level FlightAware ADS-B (EPLB / LUZ)
Tue 01:28:18 PM 44.7458 -79.6999 203° Southwest 417 480 36,000  Level FlightAware ADS-B (CYYZ)
Tue 01:28:37 PM 44.7196 -79.7149 203° Southwest 417 480 36,000  Level FlightAware ADS-B (CYYZ)
Tue 01:29:05 PM 44.6655 -79.7457 202° Southwest 418 481 36,000  Level FlightAware ADS-B (EPLB / LUZ)
Tue 01:29:19 PM 44.6357 -79.7627 203° Southwest 419 482 36,000  Level FlightAware ADS-B (CYYZ)
Tue 01:29:45 PM 44.5921 -79.7890 206° Southwest 415 478 36,000  Level FlightAware ADS-B (EPLB / LUZ)
Tue 01:29:54 PM 44.5736 -79.8020 208° Southwest 414 476 36,000  Level FlightAware ADS-B (CYYZ)
Tue 01:30:19 PM 44.5355 -79.8337 213° Southwest 407 468 36,000  Level FlightAware ADS-B (EPLB / LUZ)
Tue 01:30:44 PM 44.4934 -79.8725 214° Southwest 406 467 36,000  Level FlightAware ADS-B (CYYZ)
Tue 01:31:14 PM 44.4467 -79.9153 214° Southwest 406 467 36,000  Level FlightAware ADS-B (CYYZ)
Tue 01:31:30 PM 44.4229 -79.9368 213° Southwest 405 466 36,000  Level FlightAware ADS-B (EPLB / LUZ)
Tue 01:31:44 PM 44.3997 -79.9576 213° Southwest 407 468 36,000  Level FlightAware ADS-B (CYYZ)
Tue 01:32:11 PM 44.3580 -79.9952 213° Southwest 406 467 36,000  Level FlightAware ADS-B (EPLB / LUZ)
Tue 01:32:14 PM 44.3530 -79.9997 213° Southwest 408 470 36,000  Level FlightAware ADS-B (CYYZ)
Tue 01:32:44 PM 44.3048 -80.0429 213° Southwest 408 470 36,000  Level FlightAware ADS-B (CYYZ)
Tue 01:32:45 PM 44.3048 -80.0429 213° Southwest 407 468 36,000  Level FlightAware ADS-B (EPLB / LUZ)
Tue 01:33:15 PM 44.2573 -80.0854 213° Southwest 408 470 36,000  Level FlightAware ADS-B (CYYZ)
Tue 01:33:27 PM 44.2394 -80.1014 213° Southwest 407 468 36,000  Level FlightAware ADS-B (EPLB / LUZ)
Tue 01:33:45 PM 44.2116 -80.1262 213° Southwest 407 468 36,000  Level FlightAware ADS-B (CYYZ)
Tue 01:34:14 PM 44.1629 -80.1695 213° Southwest 406 467 36,000  Level FlightAware ADS-B (CYYZ)
Tue 01:34:23 PM 44.1495 -80.1815 213° Southwest 404 465 36,000  Level FlightAware ADS-B (EPLB / LUZ)
Tue 01:34:45 PM 44.1150 -80.2121 213° Southwest 405 466 36,000  Level FlightAware ADS-B (CYYZ)
Tue 01:35:15 PM 44.0681 -80.2538 213° Southwest 404 465 36,000  Level FlightAware ADS-B (CYYZ)
Tue 01:35:20 PM 44.0648 -80.2567 213° Southwest 403 464 36,000  Level FlightAware ADS-B (EPLB / LUZ)
Tue 01:35:44 PM 44.0219 -80.2948 213° Southwest 404 465 36,000  Level FlightAware ADS-B (CYYZ)
Tue 01:35:52 PM 44.0098 -80.3055 213° Southwest 403 464 36,000  Level FlightAware ADS-B (CYKF)
Tue 01:36:14 PM 43.9739 -80.3372 213° Southwest 406 467 36,000  Level FlightAware ADS-B (CYYZ)
Tue 01:36:39 PM 43.9662 -80.3441 213° Southwest 406 467 36,000  Level FlightAware ADS-B (CZBA)
Tue 01:36:45 PM 43.9278 -80.3779 213° Southwest 407 468 36,000  Level FlightAware ADS-B (CYYZ)
Tue 01:37:14 PM 43.8805 -80.4196 213° Southwest 407 468 36,000  Level FlightAware ADS-B (CYYZ)
Tue 01:37:27 PM 43.8603 -80.4374 213° Southwest 407 468 36,000  Level FlightAware ADS-B (EPLB / LUZ)
Tue 01:37:44 PM 43.8322 -80.4622 213° Southwest 408 470 36,000  Level FlightAware ADS-B (CYYZ)
Tue 01:38:02 PM 43.8035 -80.4876 213° Southwest 408 470 36,000  Level FlightAware ADS-B (EPLB / LUZ)
Tue 01:38:14 PM 43.7841 -80.5045 213° Southwest 410 472 36,000  Level FlightAware ADS-B (CYYZ)
Tue 01:38:32 PM 43.7565 -80.5286 212° Southwest 410 472 36,000  Level FlightAware ADS-B (EPLB / LUZ)
Tue 01:38:43 PM 43.7565 -80.5286 213° Southwest 410 472 36,000  Level FlightAware ADS-B (CYYZ)
Tue 01:39:06 PM 43.7081 -80.5711 212° Southwest 410 472 36,000  Level FlightAware ADS-B
Tue 01:39:15 PM 43.6927 -80.5845 213° Southwest 412 474 36,000  Level FlightAware ADS-B (CYYZ)
Tue 01:39:44 PM 43.6405 -80.6298 213° Southwest 412 474 36,000  Level FlightAware ADS-B (CYYZ)
Tue 01:39:47 PM 43.6398 -80.6304 212° Southwest 411 473 36,000  Level FlightAware ADS-B (CZBA)
Tue 01:40:12 PM 43.6057 -80.6601 213° Southwest 410 472 36,000  Level FlightAware ADS-B (CYYZ)
Tue 01:40:33 PM 43.5638 -80.6965 212° Southwest 408 470 36,000  Level FlightAware ADS-B (EPLB / LUZ)
Tue 01:40:44 PM 43.5444 -80.7133 213° Southwest 410 472 36,000  Level FlightAware ADS-B (CYYZ)
Tue 01:41:04 PM 43.5138 -80.7400 212° Southwest 410 472 36,000  Level FlightAware ADS-B
Tue 01:41:12 PM 43.5059 -80.7468 213° Southwest 410 472 36,000  Level FlightAware ADS-B (CYYZ)
Tue 01:41:44 PM 43.4483 -80.7970 213° Southwest 410 472 36,000  Level FlightAware ADS-B (CYYZ)
Tue 01:41:48 PM 43.4439 -80.8008 212° Southwest 410 472 36,000  Level FlightAware ADS-B (EPLB / LUZ)
Tue 01:42:14 PM 43.4009 -80.8379 213° Southwest 409 471 36,000  Level FlightAware ADS-B (CYYZ)
Tue 01:42:21 PM 43.3904 -80.8470 212° Southwest 408 470 36,000  Level FlightAware ADS-B (EPLB / LUZ)
Tue 01:42:44 PM 43.3532 -80.8790 213° Southwest 408 470 36,000  Level FlightAware ADS-B (CYYZ)
Tue 01:43:02 PM 43.3267 -80.9019 212° Southwest 408 470 36,000  Level FlightAware ADS-B (EPLB / LUZ)
Tue 01:43:14 PM 43.3046 -80.9209 213° Southwest 409 471 36,000  Level FlightAware ADS-B (CYYZ)
Tue 01:43:37 PM 43.2698 -80.9507 212° Southwest 408 470 36,000  Level FlightAware ADS-B (EPLB / LUZ)
Tue 01:43:45 PM 43.2565 -80.9622 213° Southwest 409 471 36,000  Level FlightAware ADS-B (CYYZ)
Tue 01:44:15 PM 43.2088 -81.0030 213° Southwest 408 470 36,000  Level FlightAware ADS-B (CYYZ)
Tue 01:44:19 PM 43.2020 -81.0088 212° Southwest 407 468 36,000  Level FlightAware ADS-B (EPLB / LUZ)
Tue 01:44:45 PM 43.1613 -81.0437 213° Southwest 406 467 36,000  Level FlightAware ADS-B (CYYZ)
Tue 01:44:52 PM 43.1488 -81.0545 212° Southwest 405 466 36,000  Level FlightAware ADS-B (CYKF)
Tue 01:45:14 PM 43.1132 -81.0847 213° Southwest 405 466 36,000  Level FlightAware ADS-B (CYYZ)
Tue 01:45:38 PM 43.0787 -81.1143 212° Southwest 403 464 36,000  Level FlightAware ADS-B (EPLB / LUZ)
Tue 01:45:44 PM 43.0660 -81.1251 213° Southwest 404 465 36,000  Level FlightAware ADS-B (CYYZ)
Tue 01:46:13 PM 43.0277 -81.1545 205° Southwest 411 473 36,000  Level FlightAware ADS-B (EPLB / LUZ)
Tue 01:46:15 PM 43.0163 -81.1618 205° Southwest 412 474 36,000  Level FlightAware ADS-B (CYYZ)
Tue 01:46:45 PM 42.9644 -81.1932 205° Southwest 411 473 36,000  Level FlightAware ADS-B (CYYZ)
Tue 01:46:52 PM 42.9559 -81.1985 205° Southwest 410 472 36,000  Level FlightAware ADS-B (CYKF)
Tue 01:47:14 PM 42.9156 -81.2241 206° Southwest 410 472 36,000  Level FlightAware ADS-B (CYYZ)
Tue 01:47:32 PM 42.8881 -81.2414 205° Southwest 410 472 36,000  Level FlightAware ADS-B (EPLB / LUZ)
Tue 01:47:45 PM 42.8611 -81.2583 205° Southwest 411 473 36,000  Level FlightAware ADS-B (CYYZ)
Tue 01:48:12 PM 42.8139 -81.2876 205° Southwest 411 473 36,000  Level FlightAware ADS-B (EPLB / LUZ)
Tue 01:48:14 PM 42.8098 -81.2901 205° Southwest 413 475 36,000  Level FlightAware ADS-B (CYYZ)
Tue 01:48:44 PM 42.7583 -81.3218 205° Southwest 413 475 36,000  Level FlightAware ADS-B (CYYZ)
Tue 01:48:52 PM 42.7438 -81.3306 205° Southwest 413 475 36,000  Level FlightAware ADS-B (EPLB / LUZ)
Tue 01:49:14 PM 42.7056 -81.3541 205° Southwest 414 476 36,000  Level FlightAware ADS-B (CYYZ)
Tue 01:49:33 PM 42.6743 -81.3733 204° Southwest 415 478 36,000  Level FlightAware ADS-B (EPLB / LUZ)
Tue 01:49:44 PM 42.6523 -81.3868 205° Southwest 416 479 36,000  Level FlightAware ADS-B (CYYZ)
Tue 01:50:05 PM 42.6385 -81.3952 204° Southwest 415 478 36,000  Level FlightAware ADS-B (EPLB / LUZ)
Tue 01:50:14 PM 42.6000 -81.4187 205° Southwest 416 479 36,000  Level FlightAware ADS-B (CYYZ)
Tue 01:50:44 PM 42.5494 -81.4496 205° Southwest 414 476 36,000  Level FlightAware ADS-B (CYYZ)
Tue 01:51:14 PM 42.4953 -81.4825 205° Southwest 411 473 36,000  Level FlightAware ADS-B (CYYZ)
Tue 01:51:45 PM 42.4449 -81.5131 205° Southwest 410 472 36,000  Level FlightAware ADS-B (CYYZ)
Tue 01:51:49 PM 42.5141 -81.4710 204° Southwest 408 470 36,000  Level FlightAware ADS-B (CYKF)
Tue 01:52:15 PM 42.3921 -81.5451 205° Southwest 406 467 36,000  Level FlightAware ADS-B (CYYZ)
Tue 01:52:45 PM 42.3414 -81.5758 205° Southwest 406 467 36,000  Level FlightAware ADS-B (CYYZ)
Tue 01:53:15 PM 42.2915 -81.6061 205° Southwest 405 466 36,000  Level FlightAware ADS-B (CYYZ)
Tue 01:53:45 PM 42.2402 -81.6372 205° Southwest 403 464 36,000  Level FlightAware ADS-B (CYYZ)
Tue 01:54:15 PM 42.1886 -81.6682 205° Southwest 401 461 36,000  Level FlightAware ADS-B (CYYZ)
Tue 01:54:18 PM 42.3539 -81.5683 204° Southwest 401 461 36,000  Level FlightAware ADS-B (EPLB / LUZ)
Tue 01:54:45 PM 42.1376 -81.6989 205° Southwest 400 460 36,000  Level FlightAware ADS-B (CYYZ)
Tue 01:55:14 PM 42.0902 -81.7275 205° Southwest 401 461 36,000  Level FlightAware ADS-B (CYYZ)
Tue 01:55:44 PM 42.0366 -81.7598 205° Southwest 401 461 36,000  Level FlightAware ADS-B (CYYZ)
Tue 01:56:14 PM 41.9864 -81.7899 205° Southwest 402 463 36,000  Level FlightAware ADS-B (CYYZ)
Tue 01:56:45 PM 41.9409 -81.8171 205° Southwest 404 465 36,000  Level FlightAware ADS-B (CYYZ)
Tue 01:57:15 PM 41.8855 -81.8503 205° Southwest 406 467 36,000  Level FlightAware ADS-B (CYYZ)
Tue 01:57:45 PM 41.8325 -81.8818 205° Southwest 407 468 36,000  Level FlightAware ADS-B (CYYZ)
Tue 01:58:15 PM 41.7823 -81.9116 205° Southwest 408 470 36,000  Level FlightAware ADS-B (CYYZ)
Tue 01:58:45 PM 41.7301 -81.9426 205° Southwest 409 471 36,000  Level FlightAware ADS-B (CYYZ)
Tue 01:59:11 PM 41.6938 -81.9641 204° Southwest 409 471 36,000  Level FlightAware ADS-B (CYYZ)
Tue 01:59:44 PM 41.6287 -82.0026 204° Southwest 408 470 36,000  Level FlightAware ADS-B (CYYZ)
Tue 02:00:14 PM 41.5793 -82.0317 204° Southwest 406 467 36,000  Level FlightAware ADS-B (CYYZ)
Tue 02:00:44 PM 41.5468 -82.0509 204° Southwest 406 467 36,000  Level FlightAware ADS-B (CYYZ)
Tue 02:01:14 PM 41.4742 -82.0937 204° Southwest 404 465 36,000  Level FlightAware ADS-B (CYYZ)
Tue 02:01:45 PM 41.4474 -82.1094 204° Southwest 404 465 36,000  Level FlightAware ADS-B (CYYZ)
Tue 02:02:15 PM 41.3714 -82.1535 202° Southwest 405 466 36,000  Level FlightAware ADS-B (CYYZ)
Tue 02:02:44 PM 41.3253 -82.1731 195° South 415 478 36,000  Level FlightAware ADS-B (CYYZ)
Tue 02:03:15 PM 41.2658 -82.1942 195° South 409 471 36,000  Level Cleveland Center
Tue 02:04:17 PM 41.1550 -82.2344 195° South 410 472 36,000  Level Cleveland Center
Tue 02:05:20 PM 41.0453 -82.2750 196° South 410 472 36,000  Level Cleveland Center
Tue 02:06:22 PM 40.9372 -82.3117 194° South 401 461 36,000  Level Cleveland Center
Tue 02:09:37 PM 40.5763 -82.4398 195° South 393 452 36,000  Level FlightAware ADS-B (EGDC)
Tue 02:13:31 PM 40.1705 -82.5805 190° South 405 466 36,000  Level FlightAware ADS-B (EGDC)
Tue 02:14:09 PM 40.0883 -82.5919 182° South 417 480 36,000  Level FlightAware ADS-B (EGDC)
Tue 02:14:50 PM 40.0104 -82.5975 183° South 416 479 36,000  Level FlightAware ADS-B (EGDC)
Tue 02:15:24 PM 39.9505 -82.6019 183° South 416 479 36,000  Level FlightAware ADS-B (EGDC)
Tue 02:16:09 PM 39.8593 -82.6082 183° South 413 475 36,000  Level FlightAware ADS-B (EGDC)
Tue 02:17:27 PM 39.7165 -82.6178 183° South 409 471 36,000  Level FlightAware ADS-B
Tue 02:18:06 PM 39.6378 -82.6232 183° South 406 467 36,000  Level FlightAware ADS-B
Tue 02:18:37 PM 39.5948 -82.6260 183° South 404 465 36,000  Level FlightAware ADS-B
Tue 02:19:07 PM 39.5250 -82.6307 183° South 403 464 36,000  Level FlightAware ADS-B
Tue 02:19:46 PM 39.4512 -82.6357 183° South 404 465 36,000  Level FlightAware ADS-B
Tue 02:20:17 PM 39.3959 -82.6394 183° South 405 466 36,000  Level FlightAware ADS-B
Tue 02:20:47 PM 39.3377 -82.6433 183° South 405 466 36,000  Level FlightAware ADS-B
Tue 02:21:26 PM 39.2687 -82.6479 183° South 405 466 36,000  Level FlightAware ADS-B
Tue 02:21:57 PM 39.2061 -82.6521 183° South 405 466 36,000  Level FlightAware ADS-B
Tue 02:22:36 PM 39.1339 -82.6569 183° South 406 467 36,000  Level FlightAware ADS-B
Tue 02:23:06 PM 39.0804 -82.6604 183° South 405 466 36,000  Level FlightAware ADS-B
Tue 02:23:37 PM 39.0206 -82.6642 183° South 404 465 36,000  Level FlightAware ADS-B
Tue 02:24:17 PM 38.9565 -82.6685 183° South 401 461 36,000  Level FlightAware ADS-B
Tue 02:24:57 PM 38.8756 -82.6738 183° South 397 457 36,000  Level FlightAware ADS-B
Tue 02:25:27 PM 38.8186 -82.6776 183° South 396 456 36,000  Level FlightAware ADS-B
Tue 02:26:07 PM 38.7458 -82.6824 183° South 393 452 36,000  Level FlightAware ADS-B
Tue 02:26:47 PM 38.6818 -82.6866 183° South 390 449 36,000  Level FlightAware ADS-B
Tue 02:27:27 PM 38.6131 -82.6906 183° South 393 452 36,000  Level Indianapolis Center
Tue 02:28:29 PM 38.5064 -82.6975 183° South 390 449 36,000  Level Indianapolis Center
Tue 02:29:31 PM 38.3981 -82.7053 183° South 390 449 36,000  Level Indianapolis Center
Tue 02:30:32 PM 38.2911 -82.7122 183° South 389 448 36,000  Level Indianapolis Center
Tue 02:31:34 PM 38.1614 -82.7197 183° South 389 448 36,000  Level Indianapolis Center
Tue 02:32:36 PM 38.0533 -82.7278 183° South 389 448 36,000  Level Indianapolis Center
Tue 02:33:38 PM 37.9447 -82.7356 183° South 389 448 36,000  Level Indianapolis Center
Tue 02:34:40 PM 37.8350 -82.7408 182° South 390 449 36,000  Level Indianapolis Center
Tue 02:35:42 PM 37.7258 -82.7517 184° South 391 450 36,000  Level Indianapolis Center
Tue 02:36:45 PM 37.6258 -82.7833 194° South 379 436 36,000  Level Indianapolis Center
Tue 02:37:46 PM 37.5403 -82.8400 208° Southwest 354 407 36,000  Level Indianapolis Center
Tue 02:38:48 PM 37.4353 -82.9097 208° Southwest 353 406 36,000  Level Indianapolis Center
Tue 02:39:50 PM 37.3472 -82.9700 209° Southwest 356 410 36,000  Level Indianapolis Center
Tue 02:40:52 PM 37.2572 -83.0256 206° Southwest 357 411 36,000  Level Indianapolis Center
Tue 02:41:54 PM 37.1694 -83.0850 208° Southwest 357 411 36,000  Level Indianapolis Center
Tue 02:42:56 PM 37.0794 -83.1400 206° Southwest 357 411 36,000  Level Indianapolis Center
Tue 02:43:58 PM 36.9839 -83.2025 208° Southwest 358 412 36,000  Level Indianapolis Center
Tue 02:45:00 PM 36.8944 -83.2606 207° Southwest 359 413 36,000  Level Indianapolis Center
Tue 02:46:02 PM 36.8056 -83.3181 207° Southwest 359 413 36,000  Level Indianapolis Center
Tue 02:47:04 PM 36.6994 -83.3889 208° Southwest 359 413 36,000  Level Indianapolis Center
Tue 02:48:06 PM 36.6092 -83.4444 206° Southwest 360 414 36,000  Level Indianapolis Center
Tue 02:49:08 PM 36.5194 -83.5033 208° Southwest 360 414 36,000  Level Indianapolis Center
Tue 02:50:10 PM 36.4317 -83.5631 209° Southwest 360 414 36,000  Level Indianapolis Center
Tue 02:51:12 PM 36.3403 -83.6192 206° Southwest 361 415 36,000  Level Indianapolis Center
Tue 02:52:14 PM 36.2494 -83.6764 207° Southwest 362 417 36,000  Level Indianapolis Center
Tue 02:53:16 PM 36.1581 -83.7342 207° Southwest 364 419 36,000  Level Indianapolis Center
Tue 02:54:18 PM 36.0475 -83.8039 207° Southwest 367 422 36,000  Level Indianapolis Center
Tue 02:55:34 PM 35.9308 -83.8797 208° Southwest 365 420 36,000  Level Atlanta Center
Tue 03:01:34 PM 35.2940 -84.0428 191° South 394 453 36,000  Level FlightAware ADS-B (KDZJ)
Tue 03:02:15 PM 35.2223 -84.0600 191° South 394 453 36,000  Level FlightAware ADS-B (KDZJ)
Tue 03:02:54 PM 35.1484 -84.0777 191° South 395 455 36,000  Level FlightAware ADS-B (KDZJ)
Tue 03:03:34 PM 35.0752 -84.0953 191° South 396 456 36,000  Level FlightAware ADS-B (KDZJ)
Tue 03:04:14 PM 34.9999 -84.1133 191° South 396 456 36,000  Level FlightAware ADS-B (KDZJ)
Tue 03:04:54 PM 34.9392 -84.1277 191° South 397 457 36,000  Level FlightAware ADS-B (KDZJ)
Tue 03:05:34 PM 34.8564 -84.1475 191° South 394 453 36,000  Level Atlanta Center
Tue 03:06:34 PM 34.7481 -84.1753 192° South 394 453 36,000  Level Atlanta Center
Tue 03:07:34 PM 34.6436 -84.1953 189° South 394 453 36,000  Level Atlanta Center
Tue 03:08:34 PM 34.5372 -84.2228 192° South 388 447 36,000  Level Atlanta Center
Tue 03:09:34 PM 34.4286 -84.2478 191° South 393 452 36,000  Level Atlanta Center
Tue 03:10:34 PM 34.3219 -84.2728 191° South 393 452 36,000  Level Atlanta Center
Tue 03:11:34 PM 34.2136 -84.3000 192° South 393 452 36,000  Level Atlanta Center
Tue 03:12:34 PM 34.1028 -84.3247 190° South 400 460 36,000  Level Atlanta Center
Tue 03:13:34 PM 33.9900 -84.3519 191° South 405 466 36,000  Level Atlanta Center
Tue 03:14:34 PM 33.8856 -84.3792 192° South 405 466 36,000  Level Atlanta Center
Tue 03:15:34 PM 33.7728 -84.4036 190° South 410 472 36,000 250 Level Atlanta Center
Tue 03:16:34 PM 33.6600 -84.4306 191° South 411 473 36,500 500 Climbing Atlanta Center
Tue 03:17:34 PM 33.5431 -84.4375 183° South 416 479 37,000 250 Climbing Atlanta Center
Tue 03:18:34 PM 33.4283 -84.4344 179° South 423 487 37,000  Level Atlanta Center
Tue 03:19:34 PM 33.3114 -84.4342 180° South 418 481 37,000  Level Atlanta Center
Tue 03:20:34 PM 33.1967 -84.4311 179° South 418 481 37,000  Level Atlanta Center
Tue 03:21:34 PM 33.0819 -84.4281 179° South 418 481 37,000  Level Atlanta Center
Tue 03:22:34 PM 32.9669 -84.4275 180° South 418 481 37,000  Level Atlanta Center
Tue 03:23:34 PM 32.8628 -84.4272 180° South 413 475 37,000  Level Atlanta Center
Tue 03:24:34 PM 32.7375 -84.4192 177° South 413 475 37,000  Level Atlanta Center
Tue 03:25:34 PM 32.6228 -84.4161 179° South 413 475 37,000  Level Atlanta Center
Tue 03:26:34 PM 32.5058 -84.4133 179° South 419 482 37,000  Level Atlanta Center
Tue 03:27:34 PM 32.3889 -84.4103 179° South 419 482 37,000  Level Atlanta Center
Tue 03:29:49 PM 32.1344 -84.4064 179° South 419 482 37,000  Level Jacksonville Center
Tue 03:30:49 PM 32.0175 -84.4044 179° South 419 482 37,000  Level Jacksonville Center
Tue 03:31:49 PM 31.9008 -84.4025 179° South 419 482 37,000  Level Jacksonville Center
Tue 03:37:14 PM 31.2442 -84.3732 156° South 462 532 37,000  Level FlightAware ADS-B (KONZ)
Tue 03:38:48 PM 31.0609 -84.2712 155° Southeast 460 529 37,000  Level FlightAware ADS-B (KONZ)
Tue 03:39:28 PM 30.9799 -84.2284 155° Southeast 460 529 37,000  Level FlightAware ADS-B (KONZ)
Tue 03:40:08 PM 30.9032 -84.1876 155° Southeast 460 529 37,000  Level FlightAware ADS-B (KONZ)
Tue 03:40:49 PM 30.8416 -84.1548 155° Southeast 460 529 37,000  Level FlightAware ADS-B (KONZ)
Tue 03:41:39 PM 30.7269 -84.0938 155° Southeast 460 529 37,000  Level FlightAware ADS-B (KONZ)
Tue 03:42:09 PM 30.6683 -84.0627 155° Southeast 459 528 37,000  Level FlightAware ADS-B (KONZ)
Tue 03:42:40 PM 30.6098 -84.0317 155° Southeast 459 528 37,000  Level FlightAware ADS-B (KONZ)
Tue 03:43:19 PM 30.5381 -83.9938 155° Southeast 460 529 37,000  Level FlightAware ADS-B (KONZ)
Tue 03:43:59 PM 30.4634 -83.9544 156° South 461 531 37,000  Level FlightAware ADS-B (KONZ)
Tue 03:44:29 PM 30.3995 -83.9208 155° Southeast 461 531 37,000  Level FlightAware ADS-B (KONZ)
Tue 03:44:59 PM 30.3407 -83.8897 155° Southeast 462 532 37,000  Level FlightAware ADS-B (KONZ)
Tue 03:45:47 PM 30.2478 -83.8409 156° South 461 531 37,000  Level FlightAware ADS-B (KONZ)
Tue 03:46:19 PM 30.1940 -83.8126 156° South 459 528 37,000  Level FlightAware ADS-B (KONZ)
Tue 03:46:58 PM 30.1088 -83.7680 156° South 458 527 37,000  Level FlightAware ADS-B (KONZ)
Tue 03:48:03 PM 29.9850 -83.7034 156° South 459 528 37,000  Level FlightAware ADS-B (KONZ)
Tue 03:48:49 PM 29.8989 -83.6592 156° South 456 525 37,000  Level Jacksonville Center
Tue 03:49:49 PM 29.7822 -83.5986 156° South 456 525 37,000  Level Jacksonville Center
Tue 03:50:49 PM 29.6678 -83.5403 156° South 456 525 37,000  Level Jacksonville Center
Tue 03:51:49 PM 29.5594 -83.4872 157° South 456 525 37,000  Level Jacksonville Center
Tue 03:52:49 PM 29.4450 -83.4244 154° Southeast 456 525 37,000  Level Jacksonville Center
Tue 03:53:49 PM 29.3261 -83.3619 155° Southeast 456 525 37,000  Level Jacksonville Center
Tue 03:59:45 PM 28.6133 -82.9980 156° South 469 540 37,000  Level FlightAware ADS-B
Tue 04:01:15 PM 28.4333 -82.9069 156° South 470 541 37,000  Level FlightAware ADS-B
Tue 04:02:14 PM 28.3176 -82.8485 156° South 470 541 37,000  Level FlightAware ADS-B
Tue 04:02:47 PM 28.2574 -82.8182 156° South 470 541 37,000  Level FlightAware ADS-B
Tue 04:03:30 PM 28.1663 -82.7725 156° South 469 540 37,000  Level FlightAware ADS-B
Tue 04:04:03 PM 28.1012 -82.7398 156° South 470 541 37,000  Level FlightAware ADS-B
Tue 04:04:57 PM 27.9925 -82.6853 156° South 470 541 37,000  Level FlightAware ADS-B
Tue 04:05:52 PM 27.8844 -82.6313 156° South 470 541 37,000  Level FlightAware ADS-B
Tue 04:06:48 PM 27.7734 -82.5759 156° South 471 542 37,000  Level FlightAware ADS-B
Tue 04:07:18 PM 27.7135 -82.5461 156° South 469 540 37,000  Level FlightAware ADS-B
Tue 04:07:55 PM 27.6394 -82.5093 156° South 469 540 37,000  Level FlightAware ADS-B
Tue 04:08:57 PM 27.5174 -82.4488 156° South 470 541 37,000  Level FlightAware ADS-B
Tue 04:09:36 PM 27.4388 -82.4099 156° South 471 542 37,000  Level FlightAware ADS-B
Tue 04:10:17 PM 27.3550 -82.3685 156° South 473 544 37,000  Level FlightAware ADS-B
Tue 04:12:27 PM 27.0948 -82.2402 156° South 472 543 37,000  Level FlightAware ADS-B
Tue 04:13:17 PM 27.0052 -82.1962 156° South 471 542 37,000  Level FlightAware ADS-B
Tue 04:14:49 PM 26.8127 -82.1019 156° South 468 539 37,000  Level FlightAware ADS-B
Tue 04:15:28 PM 26.7362 -82.0645 156° South 467 537 37,000  Level FlightAware ADS-B
Tue 04:16:18 PM 26.6364 -82.0159 156° South 466 536 37,000  Level FlightAware ADS-B
Tue 04:16:48 PM 26.5757 -81.9864 156° South 466 536 37,000  Level FlightAware ADS-B
Tue 04:17:27 PM 26.4986 -81.9490 156° South 468 539 37,000  Level FlightAware ADS-B
Tue 04:18:02 PM 26.4507 -81.9257 156° South 469 540 37,000  Level FlightAware ADS-B
Tue 04:18:32 PM 26.3807 -81.8931 159° South 466 536 37,000  Level FlightAware ADS-B
Tue 04:19:18 PM 26.2751 -81.8484 159° South 468 539 37,000  Level FlightAware ADS-B
Tue 04:19:58 PM 26.1953 -81.8139 159° South 468 539 37,000  Level FlightAware ADS-B
Tue 04:20:57 PM 26.0768 -81.7626 159° South 467 537 37,000  Level FlightAware ADS-B
Tue 04:21:52 PM 25.9822 -81.7217 159° South 465 535 37,000  Level FlightAware ADS-B
Tue 04:22:23 PM 25.9035 -81.6877 159° South 464 534 37,000  Level FlightAware ADS-B
Tue 04:23:00 PM 25.8997 -81.6860 159° South 464 534 37,000  Level FlightAware ADS-B
Tue 04:23:36 PM 25.9035 -81.6877 159° South 462 532 37,000  Level FlightAware ADS-B
Tue 04:24:44 PM 25.6203 -81.5699 164° South 456 525 37,000  Level FlightAware ADS-B
Tue 04:25:08 PM 25.6203 -81.5699 170° South 447 514 37,000  Level FlightAware ADS-B
Tue 04:26:02 PM 25.6858 -81.5941 169° South 448 516 37,000  Level FlightAware ADS-B
Tue 04:27:00 PM 25.3658 -81.5564 169° South 434 499 37,000 -102 Level Miami Center
Tue 04:28:00 PM 25.2544 -81.5844 193° South 428 493 36,800 -600 Descending Miami Center
Tue 04:29:00 PM 25.1386 -81.6164 194° South 422 486 35,800 -1,000 Descending Miami Center
Tue 04:30:00 PM 25.0206 -81.6508 195° South 427 491 34,800 -950 Descending Miami Center
Tue 04:31:00 PM 24.9044 -81.6853 195° South 433 498 33,900 -1,000 Descending Miami Center
Tue 04:32:00 PM 24.7800 -81.7217 195° South 433 498 32,800 -1,050 Descending Miami Center
Tue 04:33:00 PM 24.6767 -81.7542 196° South 428 493 31,800 -1,000 Descending Miami Center
Tue 04:34:00 PM 24.5683 -81.8092 205° Southwest 428 493 30,800 -950 Descending Miami Center
Tue 04:35:00 PM 24.4803 -81.8786 216° Southwest 419 482 29,900 -950 Descending Miami Center
Tue 04:36:00 PM 24.4125 -81.9717 231° Southwest 386 444 28,900 -1,000 Descending Miami Center
Tue 04:37:00 PM 24.3447 -82.0625 231° Southwest 391 450 27,900 -1,000 Descending Miami Center
Tue 04:38:00 PM 24.2747 -82.1528 230° Southwest 391 450 26,900 -1,000 Descending Miami Center
Tue 04:39:00 PM 24.2067 -82.2433 231° Southwest 391 450 25,900 -1,000 Descending Miami Center
Tue 04:40:00 PM 24.1408 -82.3336 231° Southwest 391 450 24,900 -1,000 Descending Miami Center
Tue 04:41:00 PM 24.0708 -82.4169 227° Southwest 386 444 23,900 -1,400 Descending Miami Center
Tue 04:42:00 PM 23.9889 -82.4883 219° Southwest 386 444 22,100 -1,800 Descending Miami Center
Tue 04:43:00 PM 23.8684 -82.4787 176° South  Level Estimated
Tue 04:50:00 PM 23.0253 -82.4119 176° South  Level Estimated
Tue 04:51:00 PM 22.9891 -82.4091 176° South  Level Estimated
Tue 04:52:00 PM 22.9891 -82.4091 North  Level Estimated
Tue 04:53:00 PM 22.9891 -82.4091 North  Level Estimated
Tue 04:54:00 PM 22.9891 -82.4091 North  Level Estimated
Tue 04:55:00 PM 22.9891 -82.4091 North  Level Estimated
Tue 04:56:00 PM 22.9891 -82.4091 North  Level Estimated
Tue 04:57:00 PM 22.9891 -82.4091 North  Level Estimated
Tue 04:58:00 PM 22.9891 -82.4091 North  Level Estimated
Tue 04:59:00 PM 22.9891 -82.4091 North  Level Estimated
Tue 05:00:00 PM 22.9891 -82.4091 North  Level Estimated
Tue 05:01:00 PM 22.9891 -82.4091 North  Level Estimated
Tue 05:02:00 PM 22.9891 -82.4091 North  Level Estimated
Tue 05:03:00 PM 22.9891 -82.4091 North  Level Estimated
Tue 05:04:00 PM 22.9891 -82.4091 North  Level Estimated
Tue 05:05:00 PM 22.9891 -82.4091 North  Level Estimated
Tue 05:06:00 PM 22.9891 -82.4091 North  Level Estimated
Tue 05:07:00 PM 22.9891 -82.4091 North  Level Estimated
Tue 05:08:00 PM 22.9891 -82.4091 North  Level Estimated
Tue 05:09:00 PM 22.9891 -82.4091 North  Level Estimated
Tue 05:10:00 PM 22.9891 -82.4091 North  Level Estimated
Tue 05:11:00 PM 22.9891 -82.4091 North  Level Estimated
Tue 05:12:00 PM 22.9891 -82.4091 North  Level Estimated

Login

Don't have an account? Register now (free) for customized features, flight alerts, and more!